sensor_id;sensor_type;location;lat;lon;timestamp;P1;P2;P0
55076;PMS7003;40971;44.702;11.030;2023-12-07T00:01:03;59.67;53.33;34.67
55076;PMS7003;40971;44.702;11.030;2023-12-07T00:11:05;58.80;52.80;35.60
55076;PMS7003;40971;44.702;11.030;2023-12-07T00:21:07;67.00;58.00;36.50
55076;PMS7003;40971;44.702;11.030;2023-12-07T00:31:10;60.00;53.20;36.60
55076;PMS7003;40971;44.702;11.030;2023-12-07T00:41:12;67.40;57.20;39.20
55076;PMS7003;40971;44.702;11.030;2023-12-07T00:51:14;61.50;54.00;36.00
55076;PMS7003;40971;44.702;11.030;2023-12-07T01:01:16;66.50;57.50;39.50
55076;PMS7003;40971;44.702;11.030;2023-12-07T01:11:16;63.50;56.00;36.00
55076;PMS7003;40971;44.702;11.030;2023-12-07T01:21:17;73.00;61.00;39.00
55076;PMS7003;40971;44.702;11.030;2023-12-07T01:31:17;65.50;54.00;36.00
55076;PMS7003;40971;44.702;11.030;2023-12-07T01:41:21;61.13;54.13;36.38
55076;PMS7003;40971;44.702;11.030;2023-12-07T01:51:22;66.00;57.00;39.00
55076;PMS7003;40971;44.702;11.030;2023-12-07T02:01:27;63.75;56.25;35.88
55076;PMS7003;40971;44.702;11.030;2023-12-07T02:11:28;59.00;52.00;35.00
55076;PMS7003;40971;44.702;11.030;2023-12-07T02:21:34;54.67;49.33;33.33
55076;PMS7003;40971;44.702;11.030;2023-12-07T02:31:42;57.50;51.50;36.00
55076;PMS7003;40971;44.702;11.030;2023-12-07T02:41:46;54.13;49.63;32.63
55076;PMS7003;40971;44.702;11.030;2023-12-07T02:51:50;56.00;51.50;34.00
55076;PMS7003;40971;44.702;11.030;2023-12-07T03:01:51;48.00;46.00;34.00
55076;PMS7003;40971;44.702;11.030;2023-12-07T03:11:53;41.40;41.40;25.40
55076;PMS7003;40971;44.702;11.030;2023-12-07T03:21:56;36.40;36.40;28.00
55076;PMS7003;40971;44.702;11.030;2023-12-07T03:31:57;38.40;36.80;26.80
55076;PMS7003;40971;44.702;11.030;2023-12-07T03:41:59;28.00;28.00;22.00
55076;PMS7003;40971;44.702;11.030;2023-12-07T03:52:04;29.57;29.57;24.57
55076;PMS7003;40971;44.702;11.030;2023-12-07T04:02:06;30.00;30.00;20.33
55076;PMS7003;40971;44.702;11.030;2023-12-07T04:12:08;29.33;29.33;19.00
55076;PMS7003;40971;44.702;11.030;2023-12-07T04:22:09;25.67;25.67;17.67
55076;PMS7003;40971;44.702;11.030;2023-12-07T04:32:12;24.67;24.67;20.67
55076;PMS7003;40971;44.702;11.030;2023-12-07T04:42:13;27.67;27.67;21.33
55076;PMS7003;40971;44.702;11.030;2023-12-07T04:52:15;34.00;34.00;24.67
55076;PMS7003;40971;44.702;11.030;2023-12-07T05:02:17;33.00;33.00;25.00
55076;PMS7003;40971;44.702;11.030;2023-12-07T05:12:19;35.00;35.00;26.33
55076;PMS7003;40971;44.702;11.030;2023-12-07T05:22:20;23.33;23.33;18.67
55076;PMS7003;40971;44.702;11.030;2023-12-07T05:32:26;27.86;27.86;18.00
55076;PMS7003;40971;44.702;11.030;2023-12-07T05:42:28;27.67;26.67;19.00
55076;PMS7003;40971;44.702;11.030;2023-12-07T05:52:31;25.43;25.43;17.14
55076;PMS7003;40971;44.702;11.030;2023-12-07T06:02:35;24.57;24.57;19.29
55076;PMS7003;40971;44.702;11.030;2023-12-07T06:12:37;21.33;21.33;17.33
55076;PMS7003;40971;44.702;11.030;2023-12-07T06:22:38;29.67;29.00;18.33
55076;PMS7003;40971;44.702;11.030;2023-12-07T06:32:40;25.00;24.33;19.00
55076;PMS7003;40971;44.702;11.030;2023-12-07T06:42:41;26.33;26.33;19.67
55076;PMS7003;40971;44.702;11.030;2023-12-07T06:52:42;30.67;30.67;24.67
55076;PMS7003;40971;44.702;11.030;2023-12-07T07:02:46;29.86;27.14;21.71
55076;PMS7003;40971;44.702;11.030;2023-12-07T07:12:49;24.57;24.57;18.71
55076;PMS7003;40971;44.702;11.030;2023-12-07T07:22:50;33.20;33.20;24.00
55076;PMS7003;40971;44.702;11.030;2023-12-07T07:32:52;28.67;28.67;21.00
55076;PMS7003;40971;44.702;11.030;2023-12-07T07:42:56;26.43;26.43;20.71
55076;PMS7003;40971;44.702;11.030;2023-12-07T07:52:57;32.67;32.67;24.33
55076;PMS7003;40971;44.702;11.030;2023-12-07T08:02:58;25.00;25.00;20.00
55076;PMS7003;40971;44.702;11.030;2023-12-07T08:12:59;26.33;26.33;19.00
55076;PMS7003;40971;44.702;11.030;2023-12-07T08:23:01;21.00;21.00;18.00
55076;PMS7003;40971;44.702;11.030;2023-12-07T08:33:02;26.00;25.00;19.00
55076;PMS7003;40971;44.702;11.030;2023-12-07T08:43:04;27.20;26.20;20.80
55076;PMS7003;40971;44.702;11.030;2023-12-07T08:53:05;27.00;27.00;19.67
55076;PMS7003;40971;44.702;11.030;2023-12-07T09:03:08;23.67;23.67;18.67
55076;PMS7003;40971;44.702;11.030;2023-12-07T09:13:09;22.67;21.33;17.33
55076;PMS7003;40971;44.702;11.030;2023-12-07T09:23:10;9.67;7.00;0.00
55076;PMS7003;40971;44.702;11.030;2023-12-07T09:33:18;22.00;22.00;17.33
55076;PMS7003;40971;44.702;11.030;2023-12-07T09:43:20;16.00;16.00;13.00
55076;PMS7003;40971;44.702;11.030;2023-12-07T09:53:21;15.00;15.00;12.00
55076;PMS7003;40971;44.702;11.030;2023-12-07T10:03:25;22.00;22.00;15.00
55076;PMS7003;40971;44.702;11.030;2023-12-07T10:13:29;28.40;28.40;20.00
55076;PMS7003;40971;44.702;11.030;2023-12-07T10:23:31;33.67;33.67;23.33
55076;PMS7003;40971;44.702;11.030;2023-12-07T10:33:33;33.40;33.40;22.40
55076;PMS7003;40971;44.702;11.030;2023-12-07T10:43:36;36.00;36.00;25.00
55076;PMS7003;40971;44.702;11.030;2023-12-07T10:53:43;41.00;41.00;28.00
55076;PMS7003;40971;44.702;11.030;2023-12-07T11:03:46;32.33;31.67;21.67
55076;PMS7003;40971;44.702;11.030;2023-12-07T11:13:53;46.00;45.00;30.50
55076;PMS7003;40971;44.702;11.030;2023-12-07T11:24:04;46.00;45.00;33.00
55076;PMS7003;40971;44.702;11.030;2023-12-07T11:34:07;53.00;49.00;33.00
55076;PMS7003;40971;44.702;11.030;2023-12-07T11:44:15;53.40;49.40;33.00
55076;PMS7003;40971;44.702;11.030;2023-12-07T11:54:19;52.50;48.50;33.00
55076;PMS7003;40971;44.702;11.030;2023-12-07T12:04:21;52.67;49.00;34.00
55076;PMS7003;40971;44.702;11.030;2023-12-07T12:14:23;45.50;45.00;30.00
55076;PMS7003;40971;44.702;11.030;2023-12-07T12:24:26;52.67;48.67;34.00
55076;PMS7003;40971;44.702;11.030;2023-12-07T12:34:32;52.00;48.75;32.75
55076;PMS7003;40971;44.702;11.030;2023-12-07T12:44:35;39.50;39.50;30.50
55076;PMS7003;40971;44.702;11.030;2023-12-07T12:54:36;39.50;39.50;29.00
55076;PMS7003;40971;44.702;11.030;2023-12-07T13:04:37;42.00;42.00;29.00
55076;PMS7003;40971;44.702;11.030;2023-12-07T13:14:39;41.33;41.33;32.33
55076;PMS7003;40971;44.702;11.030;2023-12-07T13:24:42;44.67;44.33;30.00
55076;PMS7003;40971;44.702;11.030;2023-12-07T13:34:43;50.00;47.00;33.00
55076;PMS7003;40971;44.702;11.030;2023-12-07T13:44:45;42.00;42.00;30.00
55076;PMS7003;40971;44.702;11.030;2023-12-07T13:54:49;44.75;44.38;29.75
55076;PMS7003;40971;44.702;11.030;2023-12-07T14:04:53;40.75;40.75;28.75
55076;PMS7003;40971;44.702;11.030;2023-12-07T14:14:54;45.33;43.00;30.00
55076;PMS7003;40971;44.702;11.030;2023-12-07T14:24:57;39.50;39.50;30.00
55076;PMS7003;40971;44.702;11.030;2023-12-07T14:35:01;42.13;42.13;29.25
55076;PMS7003;40971;44.702;11.030;2023-12-07T14:45:02;45.00;45.00;30.67
55076;PMS7003;40971;44.702;11.030;2023-12-07T14:55:06;43.00;43.00;30.00
55076;PMS7003;40971;44.702;11.030;2023-12-07T15:05:08;48.50;47.00;32.00
55076;PMS7003;40971;44.702;11.030;2023-12-07T15:15:10;52.40;48.60;33.20
55076;PMS7003;40971;44.702;11.030;2023-12-07T15:25:12;52.00;49.00;33.00
55076;PMS7003;40971;44.702;11.030;2023-12-07T15:35:13;48.50;45.00;32.00
55076;PMS7003;40971;44.702;11.030;2023-12-07T15:45:16;46.40;45.80;28.60
55076;PMS7003;40971;44.702;11.030;2023-12-07T15:55:18;53.40;48.60;33.60
55076;PMS7003;40971;44.702;11.030;2023-12-07T16:05:21;37.40;37.40;27.00
55076;PMS7003;40971;44.702;11.030;2023-12-07T16:15:23;48.00;46.60;32.20
55076;PMS7003;40971;44.702;11.030;2023-12-07T16:25:24;37.67;37.67;28.00
55076;PMS7003;40971;44.702;11.030;2023-12-07T16:35:26;49.60;48.20;31.80
55076;PMS7003;40971;44.702;11.030;2023-12-07T16:45:29;49.80;48.00;33.20
55076;PMS7003;40971;44.702;11.030;2023-12-07T16:55:31;54.00;49.00;34.00
55076;PMS7003;40971;44.702;11.030;2023-12-07T17:05:34;55.00;49.00;33.00
55076;PMS7003;40971;44.702;11.030;2023-12-07T17:15:36;51.33;48.00;33.00
55076;PMS7003;40971;44.702;11.030;2023-12-07T17:25:38;49.00;48.00;33.00
55076;PMS7003;40971;44.702;11.030;2023-12-07T17:35:40;46.00;45.00;32.00
55076;PMS7003;40971;44.702;11.030;2023-12-07T17:45:42;67.67;58.67;35.33
55076;PMS7003;40971;44.702;11.030;2023-12-07T17:55:46;49.50;47.00;33.00
55076;PMS7003;40971;44.702;11.030;2023-12-07T18:05:51;51.67;48.44;32.56
55076;PMS7003;40971;44.702;11.030;2023-12-07T18:15:53;46.00;45.00;30.50
55076;PMS7003;40971;44.702;11.030;2023-12-07T18:25:54;50.67;48.00;33.00
55076;PMS7003;40971;44.702;11.030;2023-12-07T18:35:56;45.00;45.00;30.00
55076;PMS7003;40971;44.702;11.030;2023-12-07T18:46:00;62.40;54.60;35.20
55076;PMS7003;40971;44.702;11.030;2023-12-07T18:56:07;55.00;51.00;33.00
55076;PMS7003;40971;44.702;11.030;2023-12-07T19:06:08;56.00;50.50;33.50
55076;PMS7003;40971;44.702;11.030;2023-12-07T19:16:11;49.80;47.60;33.40
55076;PMS7003;40971;44.702;11.030;2023-12-07T19:26:15;48.50;45.50;32.00
55076;PMS7003;40971;44.702;11.030;2023-12-07T19:36:16;56.33;48.67;31.00
55076;PMS7003;40971;44.702;11.030;2023-12-07T19:46:17;48.00;46.00;32.00
55076;PMS7003;40971;44.702;11.030;2023-12-07T19:56:22;51.38;48.00;33.13
55076;PMS7003;40971;44.702;11.030;2023-12-07T20:06:24;47.60;45.80;30.00
55076;PMS7003;40971;44.702;11.030;2023-12-07T20:16:25;59.00;53.00;38.00
55076;PMS7003;40971;44.702;11.030;2023-12-07T20:26:27;54.00;49.00;34.00
55076;PMS7003;40971;44.702;11.030;2023-12-07T20:36:28;57.33;52.00;36.00
55076;PMS7003;40971;44.702;11.030;2023-12-07T20:46:31;58.60;51.80;33.80
55076;PMS7003;40971;44.702;11.030;2023-12-07T20:56:35;61.13;53.38;36.13
55076;PMS7003;40971;44.702;11.030;2023-12-07T21:06:41;51.50;48.50;33.00
55076;PMS7003;40971;44.702;11.030;2023-12-07T21:16:43;63.67;53.67;35.33
55076;PMS7003;40971;44.702;11.030;2023-12-07T21:26:45;60.50;54.00;36.00
55076;PMS7003;40971;44.702;11.030;2023-12-07T21:36:49;68.50;59.38;39.25
55076;PMS7003;40971;44.702;11.030;2023-12-07T21:46:50;65.00;56.00;36.50
55076;PMS7003;40971;44.702;11.030;2023-12-07T21:56:52;61.00;54.00;34.00
55076;PMS7003;40971;44.702;11.030;2023-12-07T22:06:53;72.00;61.00;41.00
55076;PMS7003;40971;44.702;11.030;2023-12-07T22:16:56;55.60;51.20;36.00
55076;PMS7003;40971;44.702;11.030;2023-12-07T22:26:57;79.67;67.00;42.67
55076;PMS7003;40971;44.702;11.030;2023-12-07T22:36:58;64.50;56.00;35.00
55076;PMS7003;40971;44.702;11.030;2023-12-07T22:46:59;52.00;49.00;33.33
55076;PMS7003;40971;44.702;11.030;2023-12-07T22:57:00;65.00;57.00;39.00
55076;PMS7003;40971;44.702;11.030;2023-12-07T23:07:04;75.60;63.20;41.20
55076;PMS7003;40971;44.702;11.030;2023-12-07T23:17:05;66.50;57.50;38.00
55076;PMS7003;40971;44.702;11.030;2023-12-07T23:27:08;78.20;66.00;43.00
55076;PMS7003;40971;44.702;11.030;2023-12-07T23:37:10;81.33;68.33;42.00
55076;PMS7003;40971;44.702;11.030;2023-12-07T23:47:10;78.50;66.50;42.50
55076;PMS7003;40971;44.702;11.030;2023-12-07T23:57:14;50.57;47.29;27.57
